Time;durP1;ratioP1;P1;durP2;ratioP2;P2;SDS_P1;SDS_P2;PMS_P1;PMS_P2;Temp;Humidity;BMP_temperature;BMP_pressure;BME280_temperature;BME280_humidity;BME280_pressure;Samples;Min_cycle;Max_cycle;Signal;HPM_P1;HPM_P2
2023/03/11 00:00:38;;;;;;;305.02;113.20;;;2.60;99.90;;;2.44;68.43;97269.19;4943403;28;20241;-78
2023/03/11 00:03:07;;;;;;;338.48;111.93;;;2.60;99.90;;;2.37;69.22;97278.81;4941848;28;20237;-78
2023/03/11 00:05:38;;;;;;;294.13;111.97;;;2.50;99.90;;;2.36;69.75;97329.25;4949865;28;20268;-79
2023/03/11 00:08:08;;;;;;;307.58;112.88;;;2.60;99.90;;;2.33;70.39;97344.91;4950382;28;20322;-78
2023/03/11 00:10:39;;;;;;;272.42;119.30;;;2.50;99.90;;;2.23;71.33;97378.00;4945384;28;20265;-79
2023/03/11 00:13:09;;;;;;;285.08;116.93;;;2.40;99.90;;;2.41;70.48;97383.97;4943477;28;20269;-78
2023/03/11 00:15:38;;;;;;;263.80;112.88;;;2.50;99.90;;;2.43;69.62;97343.09;4943153;28;20242;-78
2023/03/11 00:18:05;;;;;;;301.65;109.75;;;2.50;99.90;;;2.41;69.06;97301.38;4937213;28;20325;-78
2023/03/11 00:20:37;;;;;;;291.60;108.07;;;2.50;99.90;;;2.36;69.21;97297.94;4941286;28;20238;-78
2023/03/11 00:23:06;;;;;;;324.70;105.65;;;2.60;99.90;;;2.37;68.96;97288.38;4943096;28;20254;-77
2023/03/11 00:25:36;;;;;;;360.73;103.22;;;2.50;99.90;;;2.38;68.95;97284.91;4940301;28;20234;-78
2023/03/11 00:28:06;;;;;;;371.60;109.38;;;2.50;99.90;;;2.45;68.53;97278.75;4937211;28;20281;-78
2023/03/11 00:30:33;;;;;;;46.08;30.55;;;2.60;99.90;;;2.48;67.90;97258.72;4939241;28;20233;-78
2023/03/11 00:33:00;;;;;;;394.27;106.82;;;2.60;99.90;;;2.50;67.70;97237.84;4935798;28;20775;-78
2023/03/11 00:35:32;;;;;;;396.52;105.80;;;2.60;99.90;;;2.50;67.50;97216.97;4939764;28;20328;-79
2023/03/11 00:38:03;;;;;;;390.13;103.18;;;2.60;99.90;;;2.50;68.15;97235.22;4957895;28;20332;-79
2023/03/11 00:40:33;;;;;;;385.73;100.03;;;2.90;99.90;;;2.48;67.67;97224.81;4944368;28;20253;-79
2023/03/11 00:43:00;;;;;;;388.98;102.78;;;3.20;99.90;;;2.51;67.38;97203.06;4943531;28;20368;-78
2023/03/11 00:45:28;;;;;;;384.27;100.00;;;2.80;99.90;;;2.47;67.60;97210.06;4946013;28;20698;-78
2023/03/11 00:47:55;;;;;;;372.42;95.15;;;2.60;99.90;;;2.49;67.42;97199.59;4960926;28;20234;-78
2023/03/11 00:50:27;;;;;;;383.05;102.57;;;2.60;99.90;;;2.37;67.77;97202.34;4959079;28;20240;-78
2023/03/11 00:52:55;;;;;;;379.58;99.03;;;2.50;99.90;;;2.39;67.68;97171.91;4941044;28;20253;-78
2023/03/11 00:55:29;;;;;;;383.45;101.95;;;2.90;99.90;;;2.36;67.54;97159.75;4944392;28;20250;-78
2023/03/11 00:58:00;;;;;;;381.33;99.47;;;2.50;99.90;;;2.25;67.76;97153.81;4944206;28;20265;-78
2023/03/11 01:00:29;;;;;;;389.88;105.18;;;2.70;99.90;;;2.21;67.96;97152.97;4943105;28;20271;-79
2023/03/11 01:02:58;;;;;;;379.67;99.88;;;2.40;99.90;;;2.17;68.39;97182.56;4931456;29;20249;-78
2023/03/11 01:05:30;;;;;;;375.75;97.22;;;2.30;99.90;;;2.25;68.03;97206.81;4945754;28;20241;-78
2023/03/11 01:07:57;;;;;;;383.77;99.78;;;2.40;99.90;;;2.20;68.21;97168.63;4948670;28;20285;-79
2023/03/11 01:10:26;;;;;;;382.48;101.03;;;2.40;99.90;;;2.12;68.67;97199.97;4948917;28;20629;-79
2023/03/11 01:12:53;;;;;;;381.13;98.43;;;2.30;99.90;;;2.08;68.84;97200.03;4948589;28;20292;-79
2023/03/11 01:15:28;;;;;;;381.63;98.85;;;2.30;99.90;;;2.04;69.30;97216.56;4947778;28;20238;-79
2023/03/11 01:17:55;;;;;;;380.92;95.97;;;2.30;99.90;;;1.98;69.34;97229.66;4946791;28;20244;-79
2023/03/11 01:20:22;;;;;;;376.48;95.43;;;2.20;99.90;;;1.93;69.42;97232.28;4944232;28;20270;-79
2023/03/11 01:22:49;;;;;;;381.58;95.80;;;2.10;99.90;;;1.98;69.41;97221.81;4947563;28;20296;-79
2023/03/11 01:25:20;;;;;;;379.08;95.30;;;2.10;99.90;;;1.96;69.64;97231.41;4949841;28;20266;-79
2023/03/11 01:27:47;;;;;;;382.05;94.80;;;2.60;99.90;;;1.92;69.45;97213.19;4952736;28;20237;-79
2023/03/11 01:30:21;;;;;;;375.83;93.60;;;2.00;99.90;;;1.80;69.96;97215.91;4950752;28;20233;-78
2023/03/11 01:32:49;;;;;;;375.88;93.55;;;1.80;99.90;;;1.75;70.26;97198.56;4950388;28;20234;-79
2023/03/11 01:35:19;;;;;;;378.52;95.00;;;1.90;99.90;;;1.72;70.33;97209.88;4947542;28;20261;-79
2023/03/11 01:37:46;;;;;;;382.30;93.95;;;2.30;99.90;;;1.68;70.42;97235.97;4946416;28;20242;-79
2023/03/11 01:40:22;;;;;;;380.45;94.80;;;1.90;99.90;;;1.76;70.42;97278.44;4946528;28;20237;-79
2023/03/11 01:42:49;;;;;;;377.08;91.55;;;1.90;99.90;;;1.65;70.76;97265.50;4944173;28;20233;-79
2023/03/11 01:45:40;;;;;;;373.77;90.38;;;2.60;99.90;;;1.62;70.81;97304.56;4950552;28;20241;-79
2023/03/11 01:48:09;;;;;;;375.13;89.70;;;1.80;99.90;;;1.58;71.26;97315.88;4954098;28;20237;-79
2023/03/11 01:50:42;;;;;;;388.90;99.28;;;1.70;99.90;;;1.60;71.05;97325.41;4953643;28;20261;-79
2023/03/11 01:53:12;;;;;;;380.35;93.60;;;1.80;99.90;;;1.49;71.18;97319.41;4949501;28;20254;-79
2023/03/11 01:55:40;;;;;;;370.88;88.47;;;1.70;99.90;;;1.52;71.51;97360.19;4951669;28;20241;-79
2023/03/11 01:58:11;;;;;;;376.42;90.13;;;1.60;99.90;;;1.50;71.54;97373.19;4937583;29;20260;-79
2023/03/11 02:00:38;;;;;;;377.27;89.15;;;1.70;99.90;;;1.52;71.11;97373.19;4952345;28;20292;-79
2023/03/11 02:03:14;;;;;;;371.77;87.95;;;1.70;99.90;;;1.41;71.45;97355.03;4949959;28;20234;-79
2023/03/11 02:05:42;;;;;;;383.10;92.70;;;1.60;99.90;;;1.48;71.65;97387.97;4948732;28;20292;-79
2023/03/11 02:08:09;;;;;;;386.88;94.63;;;1.60;99.90;;;1.39;71.55;97356.75;4948330;28;20238;-79
2023/03/11 02:10:40;;;;;;;524.63;180.98;;;2.40;99.90;;;1.42;71.56;97355.88;4944916;28;20260;-79
2023/03/11 02:13:09;;;;;;;378.17;92.18;;;1.70;99.90;;;1.36;71.68;97348.09;4945656;28;20716;-79
2023/03/11 02:15:36;;;;;;;380.98;89.55;;;1.50;99.90;;;1.22;72.11;97343.78;4945241;28;20246;-79
2023/03/11 02:18:07;;;;;;;373.67;87.03;;;1.50;99.90;;;1.19;72.80;97364.63;4944000;28;20278;-79
2023/03/11 02:20:59;;;;;;;387.15;93.20;;;1.40;99.90;;;1.30;72.36;97372.41;4944261;28;20253;-79
2023/03/11 02:23:38;;;;;;;369.17;82.18;;;1.40;99.90;;;1.26;72.29;97368.94;4950283;28;20234;-79
2023/03/11 02:26:16;;;;;;;374.45;84.90;;;1.40;99.90;;;1.24;72.67;97383.69;4935759;29;20244;-79
2023/03/11 02:28:45;;;;;;;372.88;84.63;;;1.40;99.90;;;1.12;72.83;97375.03;4936613;28;20241;-79
2023/03/11 02:31:13;;;;;;;368.02;81.75;;;1.40;99.90;;;1.07;73.28;97390.66;4949333;28;20249;-79
2023/03/11 02:33:41;;;;;;;387.60;91.30;;;1.20;99.90;;;1.21;73.15;97421.88;4964981;28;20246;-79
2023/03/11 02:36:34;;;;;;;383.75;88.85;;;1.30;99.90;;;1.15;73.04;97420.13;4946002;28;20238;-80
2023/03/11 02:39:03;;;;;;;378.77;85.63;;;1.30;99.90;;;1.09;73.25;97424.50;4953288;28;20234;-79
2023/03/11 02:41:33;;;;;;;389.80;92.15;;;1.30;99.90;;;1.14;73.26;97434.03;4949757;28;20234;-80
2023/03/11 02:44:01;;;;;;;378.80;84.97;;;1.60;99.90;;;0.96;73.52;97414.09;4946339;28;20265;-79
2023/03/11 02:46:28;;;;;;;378.75;86.70;;;1.30;99.90;;;1.07;73.48;97436.63;4946984;28;20297;-79
2023/03/11 02:48:56;;;;;;;373.00;83.25;;;1.20;99.90;;;1.15;73.34;97453.09;4947475;28;20239;-79
2023/03/11 02:51:23;;;;;;;371.65;82.85;;;1.30;99.90;;;0.96;73.70;97432.31;4951624;28;20296;-79
2023/03/11 02:53:56;;;;;;;371.05;83.13;;;1.20;99.90;;;1.03;73.67;97459.19;4955933;28;20301;-80
2023/03/11 02:56:24;;;;;;;383.33;86.32;;;1.20;99.90;;;1.03;73.68;97460.94;4952663;28;20257;-80
2023/03/11 02:58:51;;;;;;;375.10;83.28;;;1.20;99.90;;;1.01;74.11;97465.25;4952998;29;20241;-79
2023/03/11 03:01:18;;;;;;;373.63;82.93;;;1.30;99.90;;;1.03;74.21;97485.22;4948967;28;20237;-80
2023/03/11 03:03:45;;;;;;;376.02;84.35;;;1.30;99.90;;;0.94;74.18;97483.47;4950125;28;20234;-79
2023/03/11 03:06:12;;;;;;;371.55;81.78;;;1.90;99.90;;;0.97;74.53;97490.41;4947612;28;20238;-79
2023/03/11 03:08:40;;;;;;;376.20;82.78;;;1.60;99.90;;;1.00;74.15;97489.56;4953999;28;20237;-79
2023/03/11 03:11:07;;;;;;;374.90;82.80;;;1.20;99.90;;;0.93;74.37;97486.94;4948520;28;20289;-79
2023/03/11 03:13:35;;;;;;;380.58;85.10;;;1.30;99.90;;;0.90;74.45;97493.88;4942891;28;20249;-79
2023/03/11 03:16:02;;;;;;;379.30;83.85;;;1.10;99.90;;;0.96;74.44;97502.56;4944848;28;20237;-79
2023/03/11 03:18:29;;;;;;;377.33;83.90;;;1.10;99.90;;;0.96;74.24;97509.50;4950073;28;20797;-79
2023/03/11 03:20:56;;;;;;;367.52;80.50;;;1.10;99.90;;;0.94;74.31;97512.09;4951997;28;20230;-79
2023/03/11 03:23:24;;;;;;;377.77;85.15;;;1.10;99.90;;;0.93;74.29;97525.09;4950790;28;20273;-79
2023/03/11 03:25:51;;;;;;;373.90;83.50;;;1.20;99.90;;;0.93;74.26;97531.16;4945845;28;20733;-79
2023/03/11 03:28:18;;;;;;;368.23;79.72;;;1.60;99.90;;;0.91;74.41;97526.84;4955285;28;20241;-79
2023/03/11 03:30:45;;;;;;;373.52;83.22;;;1.10;99.90;;;0.81;74.54;97541.56;4952379;28;20304;-79
2023/03/11 03:33:12;;;;;;;370.60;79.75;;;1.20;99.90;;;0.85;75.00;97565.84;4955234;28;20229;-79
2023/03/11 03:35:43;;;;;;;371.10;80.55;;;1.00;99.90;;;0.93;74.86;97583.19;4950666;28;20238;-79
2023/03/11 03:38:10;;;;;;;373.40;81.22;;;1.00;99.90;;;0.86;74.99;97573.66;4956586;28;20262;-80
2023/03/11 03:40:38;;;;;;;377.42;83.13;;;1.10;99.90;;;0.88;74.83;97578.88;4955457;28;20305;-80
2023/03/11 03:43:05;;;;;;;378.60;82.38;;;0.90;99.90;;;0.82;75.30;97586.66;4953093;28;20249;-79
2023/03/11 03:45:32;;;;;;;386.63;87.10;;;0.90;99.90;;;0.85;74.84;97586.66;4949941;28;20238;-79
2023/03/11 03:48:00;;;;;;;361.77;75.63;;;1.00;99.90;;;0.84;74.79;97580.59;4955538;28;20229;-79
2023/03/11 03:50:27;;;;;;;368.30;78.53;;;1.00;99.90;;;0.75;75.10;97570.16;4952958;28;20229;-79
2023/03/11 03:52:54;;;;;;;370.17;78.90;;;1.00;99.90;;;0.77;74.91;97577.97;4951236;28;20293;-80
2023/03/11 03:55:21;;;;;;;368.05;77.40;;;1.00;99.90;;;0.72;75.09;97579.69;4950855;28;20234;-79
2023/03/11 03:57:48;;;;;;;372.85;80.05;;;1.60;99.90;;;0.71;75.30;97594.44;4952504;28;20245;-79
2023/03/11 04:00:16;;;;;;;374.75;81.97;;;1.10;99.90;;;0.73;75.10;97597.91;4952392;28;20234;-79
2023/03/11 04:02:43;;;;;;;374.63;80.38;;;0.90;99.90;;;0.70;75.24;97600.50;4953387;28;20234;-79
2023/03/11 04:05:10;;;;;;;361.70;75.57;;;1.10;99.90;;;0.70;75.34;97618.72;4954754;28;20240;-79
2023/03/11 04:07:37;;;;;;;376.27;82.43;;;1.50;99.90;;;0.66;75.68;97618.69;4952462;28;20242;-79
2023/03/11 04:10:05;;;;;;;366.60;77.07;;;0.90;99.90;;;0.61;75.54;97635.16;4950135;28;20347;-79
2023/03/11 04:12:32;;;;;;;388.00;86.05;;;0.80;99.90;;;0.65;75.83;97651.63;4946700;28;20316;-79
2023/03/11 04:14:59;;;;;;;370.50;79.03;;;0.90;99.90;;;0.58;76.02;97648.13;4949546;28;20241;-80
2023/03/11 04:17:27;;;;;;;377.60;82.50;;;0.80;99.90;;;0.62;76.14;97659.41;4951788;28;20230;-79
2023/03/11 04:19:54;;;;;;;364.88;75.80;;;0.90;99.90;;;0.71;75.86;97662.06;4943121;28;20297;-79
2023/03/11 04:22:21;;;;;;;369.58;78.30;;;0.90;99.90;;;0.72;76.10;97660.31;4944784;28;20233;-79
2023/03/11 04:24:48;;;;;;;377.02;82.28;;;0.90;99.90;;;0.63;75.97;97661.16;4943932;28;20249;-79
2023/03/11 04:27:15;;;;;;;361.92;75.22;;;1.40;99.90;;;0.69;75.80;97671.56;4947105;28;20249;-79
2023/03/11 04:29:42;;;;;;;373.33;79.60;;;1.80;99.90;;;0.70;75.98;97675.91;4948744;28;20253;-79
2023/03/11 04:32:09;;;;;;;363.35;76.03;;;0.80;99.90;;;0.66;75.94;97666.38;4946799;28;20293;-79
2023/03/11 04:34:36;;;;;;;376.10;84.15;;;0.50;99.90;;;0.61;76.00;97675.88;4945648;28;20233;-79
2023/03/11 04:37:03;;;;;;;383.65;85.10;;;0.80;99.90;;;0.69;75.61;97671.56;4946800;28;20289;-79
2023/03/11 04:39:30;;;;;;;381.98;84.10;;;0.90;99.90;;;0.75;75.81;97681.13;4942080;28;20238;-79
2023/03/11 04:41:57;;;;;;;366.45;77.22;;;1.20;99.90;;;0.71;76.17;97685.47;4944101;28;20348;-78
2023/03/11 04:44:25;;;;;;;376.25;81.22;;;0.90;99.90;;;0.69;76.26;97688.91;4945568;28;20273;-79
2023/03/11 04:46:52;;;;;;;364.42;75.88;;;1.20;99.90;;;0.59;76.31;97693.22;4942437;28;20772;-79
2023/03/11 04:49:19;;;;;;;375.15;81.40;;;0.80;99.90;;;0.66;76.32;97709.72;4946330;28;20293;-79
2023/03/11 04:51:46;;;;;;;365.25;77.18;;;0.90;99.90;;;0.63;76.62;97727.03;4944411;28;20304;-78
2023/03/11 04:54:13;;;;;;;369.13;78.35;;;0.80;99.90;;;0.71;76.08;97718.41;4946188;28;20285;-78
2023/03/11 04:56:40;;;;;;;376.63;81.15;;;0.90;99.90;;;0.73;75.86;97707.13;4944814;28;20282;-78
2023/03/11 04:59:08;;;;;;;372.42;78.93;;;1.10;99.90;;;0.63;75.89;97706.22;4951778;28;20304;-78
2023/03/11 05:01:35;;;;;;;373.13;80.80;;;0.80;99.90;;;0.57;76.33;97703.59;4947727;28;20237;-78
2023/03/11 05:04:02;;;;;;;364.88;76.43;;;0.90;99.90;;;0.69;75.78;97715.78;4949783;28;20237;-78
2023/03/11 05:06:29;;;;;;;371.02;79.35;;;0.80;99.90;;;0.55;76.17;97707.06;4947388;28;20284;-79
2023/03/11 05:08:57;;;;;;;364.83;76.63;;;0.70;99.90;;;0.57;76.24;97715.72;4950793;28;20268;-79
2023/03/11 05:11:24;;;;;;;382.42;84.10;;;0.80;99.90;;;0.57;76.26;97702.72;4946073;28;20242;-79
2023/03/11 05:13:51;;;;;;;365.58;77.00;;;0.70;99.90;;;0.48;76.60;97713.97;4942623;28;20241;-79
2023/03/11 05:16:19;;;;;;;371.35;79.93;;;0.70;99.90;;;0.55;76.26;97720.06;4949488;28;20257;-79
2023/03/11 05:18:46;;;;;;;365.80;77.15;;;0.90;99.90;;;0.47;76.68;97719.16;4943930;28;20260;-79
2023/03/11 05:21:13;;;;;;;368.25;77.40;;;1.30;99.90;;;0.48;76.92;97742.56;4949792;28;20230;-79
2023/03/11 05:23:40;;;;;;;363.95;76.18;;;0.80;99.90;;;0.48;76.99;97747.75;4952860;28;20288;-79
2023/03/11 05:26:07;;;;;;;370.90;78.47;;;0.70;99.90;;;0.38;77.44;97753.75;4946761;28;20566;-78
2023/03/11 05:28:34;;;;;;;369.92;77.43;;;0.60;99.90;;;0.42;77.30;97765.03;4948416;28;20246;-79
2023/03/11 05:31:01;;;;;;;363.17;76.20;;;0.50;99.90;;;0.45;77.42;97780.66;4949642;28;20225;-78
2023/03/11 05:33:34;;;;;;;364.38;74.45;;;0.60;99.90;;;0.38;77.67;97790.16;4952621;28;20694;-79
2023/03/11 05:36:08;;;;;;;362.80;76.07;;;0.50;99.90;;;0.22;77.67;97780.50;4952149;28;20234;-79
2023/03/11 05:38:37;;;;;;;371.17;78.80;;;0.40;99.90;;;0.22;77.88;97791.78;4951191;28;20240;-79
2023/03/11 05:41:05;;;;;;;362.05;74.78;;;0.40;99.90;;;0.19;78.24;97807.34;4954311;28;20369;-78
2023/03/11 05:43:32;;;;;;;369.08;77.95;;;0.30;99.90;;;0.30;78.15;97807.41;4951337;28;20292;-79
2023/03/11 05:45:59;;;;;;;361.25;73.82;;;0.40;99.90;;;0.28;77.94;97804.81;4951441;28;20303;-79
2023/03/11 05:48:26;;;;;;;359.45;73.03;;;0.40;99.90;;;0.26;78.05;97805.66;4952874;28;20595;-79
2023/03/11 05:50:53;;;;;;;358.33;76.28;;;0.40;99.90;;;0.27;78.03;97815.19;4954623;28;20265;-79
2023/03/11 05:53:20;;;;;;;356.10;74.57;;;0.60;99.90;;;0.27;78.07;97812.59;4949603;28;20261;-79
2023/03/11 05:55:59;;;;;;;359.60;77.10;;;0.40;99.90;;;0.30;77.66;97817.81;4953314;28;20762;-79
2023/03/11 05:58:31;;;;;;;356.17;76.80;;;0.50;99.90;;;0.19;77.95;97804.75;4948002;28;20321;-80
2023/03/11 06:00:59;;;;;;;355.92;75.00;;;0.40;99.90;;;0.15;78.40;97815.09;4945424;28;20250;-79
2023/03/11 06:03:26;;;;;;;350.05;77.30;;;0.40;99.90;;;0.22;78.16;97830.75;4953299;28;20343;-80
2023/03/11 06:05:54;;;;;;;368.70;83.47;;;0.40;99.90;;;0.10;78.67;97825.44;4935103;29;20241;-79
2023/03/11 06:08:21;;;;;;;365.42;76.18;;;0.30;99.90;;;0.07;79.09;97856.59;4954513;28;20248;-78
2023/03/11 06:10:48;;;;;;;359.35;75.93;;;0.30;99.90;;;0.03;79.34;97861.75;4956472;28;20241;-78
2023/03/11 06:13:15;;;;;;;370.52;83.47;;;0.40;99.90;;;0.10;79.07;97880.00;4946067;28;20237;-78
2023/03/11 06:15:43;;;;;;;376.02;86.38;;;0.30;99.90;;;0.13;79.17;97885.25;4947119;28;20233;-78
2023/03/11 06:18:10;;;;;;;356.13;90.07;;;0.50;99.90;;;0.19;79.07;97887.03;4948072;28;20230;-77
2023/03/11 06:20:37;;;;;;;361.77;77.75;;;0.30;99.90;;;0.19;78.89;97894.81;4953390;28;20261;-77
2023/03/11 06:23:04;;;;;;;358.50;75.50;;;1.00;99.90;;;0.18;79.01;97893.94;4948881;28;20321;-78
2023/03/11 06:25:31;;;;;;;376.52;84.57;;;0.30;99.90;;;0.24;79.00;97920.00;4952027;28;20296;-78
2023/03/11 06:27:58;;;;;;;357.50;79.18;;;0.40;99.90;;;0.25;78.99;97916.53;4956921;28;20234;-78
2023/03/11 06:30:43;;;;;;;362.13;78.63;;;0.90;99.90;;;0.32;78.88;97933.94;4957504;28;20242;-78
2023/03/11 06:33:13;;;;;;;353.52;74.70;;;0.50;99.90;;;0.29;79.24;97933.03;4908916;23;20256;-82
2023/03/11 06:35:40;;;;;;;365.38;76.07;;;0.50;99.90;;;0.46;78.81;97948.78;4954820;28;20228;-86
2023/03/11 06:38:07;;;;;;;358.23;75.70;;;0.70;99.90;;;0.45;78.85;97936.63;4942596;28;20234;-84
2023/03/11 06:40:37;;;;;;;364.40;78.15;;;0.80;99.90;;;0.39;79.13;97946.97;4946661;28;20237;-86
2023/03/11 06:43:04;;;;;;;361.98;77.97;;;0.90;99.90;;;0.50;78.78;97954.03;4950235;28;20229;-85
2023/03/11 06:45:31;;;;;;;359.17;78.22;;;1.00;99.90;;;0.61;78.61;97965.38;4947178;28;20257;-84
2023/03/11 06:47:58;;;;;;;349.50;78.22;;;1.20;99.90;;;0.68;78.23;97937.69;4953169;28;20694;-84
2023/03/11 06:50:26;;;;;;;354.50;77.57;;;0.80;99.90;;;0.79;78.15;97948.19;4950792;28;20253;-83
2023/03/11 06:52:53;;;;;;;367.42;85.55;;;0.90;99.90;;;0.81;77.66;97939.53;4943604;28;20234;-83
2023/03/11 06:55:20;;;;;;;357.02;76.68;;;1.00;99.90;;;0.77;77.62;97924.78;4950363;28;20276;-83
2023/03/11 06:57:48;;;;;;;360.98;82.30;;;0.90;99.90;;;0.92;77.08;97930.09;4945614;28;20620;-83
2023/03/11 07:00:16;;;;;;;359.50;75.30;;;1.30;99.90;;;0.93;77.05;97928.34;4954056;28;20250;-82
2023/03/11 07:02:43;;;;;;;370.02;82.03;;;1.10;99.90;;;0.91;77.04;97933.53;4945037;28;20238;-85
2023/03/11 07:05:12;;;;;;;355.45;78.88;;;1.10;99.90;;;1.04;76.77;97941.44;4950249;28;20236;-83
2023/03/11 07:07:39;;;;;;;364.00;81.70;;;1.10;99.90;;;1.05;76.93;97933.63;4948448;28;20237;-82
2023/03/11 07:10:08;;;;;;;364.17;81.97;;;1.10;99.90;;;1.07;76.63;97931.03;4945923;28;20246;-81
2023/03/11 07:12:35;;;;;;;371.55;90.40;;;1.20;99.90;;;1.18;76.39;97930.25;4943631;28;20234;-80
2023/03/11 07:15:04;;;;;;;356.75;85.13;;;1.80;99.90;;;1.17;76.41;97918.09;4948162;28;20261;-83
2023/03/11 07:17:31;;;;;;;362.23;82.82;;;1.30;99.90;;;1.15;76.08;97905.94;4952708;28;20245;-84
2023/03/11 07:19:59;;;;;;;346.40;84.32;;;1.70;99.90;;;1.18;75.81;97892.94;4938482;28;20238;-84
2023/03/11 07:22:26;;;;;;;356.02;82.90;;;1.40;99.90;;;1.25;75.96;97915.53;4923433;29;20265;-84
2023/03/11 07:24:53;;;;;;;358.67;88.25;;;1.90;99.90;;;1.31;75.84;97925.16;4945586;28;20245;-85
2023/03/11 07:27:21;;;;;;;354.55;86.78;;;2.20;99.90;;;1.36;75.73;97928.66;4947861;28;20313;-85
2023/03/11 07:29:49;;;;;;;361.05;84.50;;;1.50;99.90;;;1.37;75.38;97912.16;4946717;28;20234;-86
2023/03/11 07:32:16;;;;;;;358.48;85.55;;;1.70;99.90;;;1.41;75.20;97914.78;4948923;28;20241;-87
2023/03/11 07:34:44;;;;;;;364.40;87.15;;;2.20;99.90;;;1.51;75.07;97923.50;4939394;28;20231;-88
2023/03/11 07:37:11;;;;;;;361.38;85.65;;;2.00;99.90;;;1.58;74.73;97917.47;4945899;28;20252;-86
2023/03/11 07:39:38;;;;;;;371.90;89.00;;;2.60;99.90;;;1.58;74.72;97914.88;4941644;28;20237;-88
2023/03/11 07:42:06;;;;;;;358.95;88.55;;;2.20;99.90;;;1.64;74.38;97920.09;4949099;28;20250;-86
2023/03/11 07:44:33;;;;;;;366.67;90.30;;;1.80;99.90;;;1.72;74.32;97925.34;4947443;28;20242;-83
2023/03/11 07:47:05;;;;;;;362.75;87.88;;;2.20;99.90;;;1.77;74.66;97942.72;4952912;28;20241;-83
2023/03/11 07:49:32;;;;;;;355.92;88.22;;;1.90;99.90;;;1.81;74.17;97938.41;4950775;28;20241;-83
2023/03/11 07:51:59;;;;;;;356.58;88.00;;;1.90;99.90;;;1.83;73.38;97910.59;4939169;29;20313;-84
2023/03/11 07:54:26;;;;;;;369.60;90.60;;;2.00;99.90;;;1.87;73.11;97886.31;4940815;28;20238;-84
2023/03/11 07:56:53;;;;;;;369.90;90.82;;;2.00;99.90;;;1.92;72.91;97885.44;4948943;28;20238;-83
2023/03/11 07:59:21;;;;;;;376.65;93.80;;;2.10;99.90;;;1.96;72.78;97894.13;4944448;28;20241;-83
2023/03/11 08:01:49;;;;;;;373.02;96.80;;;2.10;99.90;;;2.03;72.52;97882.00;4950985;28;20241;-83
2023/03/11 08:04:16;;;;;;;363.67;93.22;;;2.40;99.90;;;1.99;72.50;97872.44;4948157;28;20242;-84
2023/03/11 08:06:46;;;;;;;367.90;93.95;;;2.10;99.90;;;2.08;72.25;97875.91;4941543;28;20289;-84
2023/03/11 08:09:13;;;;;;;363.75;91.35;;;2.20;99.90;;;2.13;71.73;97866.38;4952455;28;20241;-84
2023/03/11 08:11:41;;;;;;;374.98;98.35;;;2.20;99.90;;;2.19;72.24;97887.22;4940986;28;20242;-85
2023/03/11 08:14:08;;;;;;;373.92;91.40;;;2.40;99.90;;;2.23;72.00;97886.38;4946245;28;20268;-84
2023/03/11 08:16:38;;;;;;;383.15;96.15;;;2.50;99.90;;;2.29;71.23;97853.34;4944107;28;20234;-85
2023/03/11 08:19:05;;;;;;;371.50;95.82;;;2.40;99.90;;;2.42;70.99;97847.25;4943944;28;20238;-85
2023/03/11 08:21:32;;;;;;;377.45;95.72;;;3.10;99.90;;;2.46;69.99;97815.09;4945021;28;20242;-84
2023/03/11 08:24:01;;;;;;;369.67;95.38;;;3.00;99.90;;;2.41;69.42;97759.47;4947303;28;20289;-83
2023/03/11 08:26:31;;;;;;;389.92;98.97;;;2.50;99.90;;;2.67;69.66;97794.22;4935264;28;20241;-84
2023/03/11 08:28:58;;;;;;;372.52;91.35;;;2.70;99.90;;;2.51;67.46;97678.59;4948429;28;20285;-84
2023/03/11 08:31:30;;;;;;;374.80;95.70;;;2.80;99.90;;;2.64;67.12;97655.97;4943762;28;20252;-84
2023/03/11 08:34:01;;;;;;;385.70;100.28;;;3.00;99.90;;;2.80;67.64;97688.94;4944373;28;20233;-83
2023/03/11 08:36:29;;;;;;;382.60;97.80;;;3.60;99.90;;;2.65;67.30;97669.88;4951340;28;20288;-84
2023/03/11 08:38:57;;;;;;;374.55;97.65;;;3.20;99.90;;;2.69;67.80;97697.69;4950207;28;20324;-83
2023/03/11 08:41:25;;;;;;;398.55;103.65;;;3.30;99.90;;;2.75;67.98;97708.09;4949885;28;20354;-84
2023/03/11 08:43:52;;;;;;;394.23;103.70;;;3.20;99.90;;;2.89;66.70;97694.13;4947094;28;20245;-83
2023/03/11 08:46:37;;;;;;;374.70;99.43;;;3.00;99.90;;;3.07;65.28;97611.38;4944161;28;20242;-83
2023/03/11 08:49:06;;;;;;;391.45;102.43;;;3.10;99.90;;;2.95;64.22;97523.56;4932947;29;20288;-86
2023/03/11 08:51:34;;;;;;;390.92;102.93;;;3.00;99.90;;;3.06;64.01;97532.19;4944224;28;20233;-84
2023/03/11 08:54:03;;;;;;;386.70;102.25;;;3.70;99.90;;;3.08;63.70;97508.69;4948819;28;20389;-84
2023/03/11 08:56:30;;;;;;;389.50;106.60;;;3.20;99.90;;;3.23;64.12;97534.66;4948397;28;20237;-84
2023/03/11 08:58:57;;;;;;;388.20;103.95;;;3.30;99.90;;;3.37;61.69;97451.84;4945573;28;20289;-83
2023/03/11 09:01:24;;;;;;;379.45;104.88;;;3.40;99.90;;;3.34;59.84;97354.38;4946473;28;20238;-84
2023/03/11 09:03:54;;;;;;;391.50;113.88;;;4.00;99.90;;;3.36;60.86;97383.94;4948177;28;20240;-84
2023/03/11 09:06:23;;;;;;;394.73;115.03;;;3.40;99.90;;;3.31;61.40;97424.94;4943027;28;20770;-84
2023/03/11 09:08:50;;;;;;;391.52;112.07;;;3.40;99.90;;;3.47;61.23;97443.03;4946174;28;20299;-83
2023/03/11 09:11:18;;;;;;;387.70;111.95;;;3.40;99.90;;;3.59;59.13;97344.50;4943986;28;20237;-84
2023/03/11 09:13:45;;;;;;;386.70;108.97;;;3.60;99.90;;;3.64;59.42;97329.63;4947386;28;20241;-84
2023/03/11 09:16:16;;;;;;;390.50;113.63;;;3.70;99.90;;;3.51;57.68;97214.84;4948268;28;20241;-84
2023/03/11 09:18:45;;;;;;;399.85;118.22;;;3.60;99.90;;;3.65;59.09;97261.69;4945505;28;20268;-83
2023/03/11 09:21:13;;;;;;;384.45;110.65;;;3.60;99.90;;;3.66;58.33;97271.25;4945874;28;20233;-83
2023/03/11 09:23:41;;;;;;;394.80;115.32;;;3.70;99.90;;;3.71;58.28;97247.66;4929139;28;20229;-82
2023/03/11 09:26:11;;;;;;;383.75;113.13;;;3.80;99.90;;;3.83;56.79;97211.75;4939720;28;20230;-83
2023/03/11 09:28:40;;;;;;;392.75;115.78;;;3.80;99.90;;;3.77;57.75;97208.38;4947834;28;20241;-84
2023/03/11 09:31:08;;;;;;;384.48;112.05;;;3.80;99.90;;;3.91;58.52;97273.53;4947373;28;20253;-84
2023/03/11 09:33:38;;;;;;;389.20;114.68;;;3.90;99.90;;;3.84;56.55;97163.81;4942409;28;20275;-83
2023/03/11 09:36:15;;;;;;;383.60;111.88;;;3.90;99.90;;;3.79;55.49;97058.50;4947010;28;20226;-82
2023/03/11 09:38:44;;;;;;;398.92;117.10;;;3.80;99.90;;;3.78;54.36;96983.59;4933773;28;20237;-82
2023/03/11 09:41:41;;;;;;;400.65;122.93;;;3.90;99.90;;;3.98;53.49;96948.41;4928368;29;20225;-83
2023/03/11 09:44:41;;;;;;;397.40;115.60;;;4.00;99.90;;;4.01;54.40;96998.88;4930518;29;20243;-84
2023/03/11 09:47:59;;;;;;;380.20;109.90;;;4.10;99.90;;;4.18;53.01;96946.25;4946604;28;20230;-84
2023/03/11 09:50:37;;;;;;;389.75;110.00;;;4.20;99.90;;;4.24;53.13;96956.56;4948335;28;20234;-84
2023/03/11 09:53:29;;;;;;;397.35;122.93;;;4.30;99.90;;;4.43;54.05;97043.34;4939332;28;20238;-83
2023/03/11 09:55:59;;;;;;;397.67;131.55;;;4.40;99.90;;;4.30;52.59;96921.56;4950317;28;20308;-83
2023/03/11 09:58:52;;;;;;;389.35;116.63;;;4.40;99.90;;;4.23;52.83;96930.44;4945650;28;20300;-83
2023/03/11 10:01:33;;;;;;;392.65;115.90;;;4.60;99.90;;;4.35;53.84;97017.34;4950314;28;20296;-83
2023/03/11 10:04:25;;;;;;;397.58;120.95;;;4.40;99.90;;;4.37;52.87;96968.47;4937961;28;20241;-84
2023/03/11 10:06:53;;;;;;;402.55;123.72;;;4.40;99.90;;;4.61;52.89;96988.00;4945875;28;20329;-84
2023/03/11 10:09:40;;;;;;;394.42;123.78;;;4.50;99.90;;;4.55;50.17;96807.63;4927753;28;20246;-85
2023/03/11 10:12:28;;;;;;;401.05;125.68;;;4.60;99.90;;;4.63;51.80;96889.41;4958742;28;20241;-82
2023/03/11 10:15:30;;;;;;;413.00;133.30;;;4.60;99.90;;;4.89;52.07;96993.47;4948537;28;20237;-82
2023/03/11 10:18:39;;;;;;;397.05;127.20;;;4.80;99.90;;;4.99;52.52;97046.47;4944102;28;20234;-81
2023/03/11 10:21:52;;;;;;;405.42;131.20;;;5.00;99.90;;;5.03;52.34;97028.03;4942402;28;20237;-82